Uruana, Brazil
Current Conditions -  °F | °C
As of 4:00 PM on Thursday 27 Nov 2014 (Local Time) from SBAN Reporting Station
Broken Clouds Broken Clouds  
Wind Chill: 79°   Ceiling: 3000
Heat Index: 81°   Visibility: 6mi
Dew Point: 64°   Wind: 5mph
Humidity: 61%   Direction: 360°N
Pressure: 29.97"   Gusts: NA
Location:  15.5°S, 49.69°W
Report Text: SBAN 271800Z 36004KT 9999 BKN030 FEW035TCU 26/18 Q1015
Loading
Personal Weather Stations






























Interactive Weather Map New forecast layout! Learn more

10-Day Weather Forecast

Advertisements
Track Severe Weather on mobile